Bladeston, Kentucky
Current Conditions -  °F | °C
As of 8:55 AM on Monday 24 Nov 2014 (Local Time) from KFGX Reporting Station
Broken Clouds Broken Clouds  
Wind Chill: 60°   Ceiling: 9500
Heat Index: 60°   Visibility: 10mi
Dew Point: 51°   Wind: 24mph
Humidity: 73%   Direction: 200°SSW
Pressure: 29.44"   Gusts: 36mph
Location:  38.6516°N, 84.0942°W
Report Text: KFGX 241355Z AUTO 20021G31KT 10SM SCT050 BKN095 16/11 A2944 RMK AO2 T01560108
Loading
Personal Weather Stations






























Interactive Weather Map New forecast layout! Learn more

10-Day Weather Forecast

Advertisements
Track Severe Weather on mobile